sensor_id;sensor_type;location;lat;lon;timestamp;temperature;humidity
23289;DHT22;11813;50.834;4.280;2022-10-16T00:00:52;15.40;99.90
23289;DHT22;11813;50.834;4.280;2022-10-16T00:03:18;15.30;99.90
23289;DHT22;11813;50.834;4.280;2022-10-16T00:05:44;15.40;99.90
23289;DHT22;11813;50.834;4.280;2022-10-16T00:08:13;15.30;99.90
23289;DHT22;11813;50.834;4.280;2022-10-16T00:10:39;15.20;99.90
23289;DHT22;11813;50.834;4.280;2022-10-16T00:13:05;15.20;99.90
23289;DHT22;11813;50.834;4.280;2022-10-16T00:15:35;15.30;99.90
23289;DHT22;11813;50.834;4.280;2022-10-16T00:18:02;15.20;99.90
23289;DHT22;11813;50.834;4.280;2022-10-16T00:20:28;15.40;99.90
23289;DHT22;11813;50.834;4.280;2022-10-16T00:22:54;15.30;99.90
23289;DHT22;11813;50.834;4.280;2022-10-16T00:25:19;15.30;99.90
23289;DHT22;11813;50.834;4.280;2022-10-16T00:27:45;15.40;99.90
23289;DHT22;11813;50.834;4.280;2022-10-16T00:30:11;15.40;99.90
23289;DHT22;11813;50.834;4.280;2022-10-16T00:32:36;15.40;99.90
23289;DHT22;11813;50.834;4.280;2022-10-16T00:35:02;15.30;99.90
23289;DHT22;11813;50.834;4.280;2022-10-16T00:37:29;15.30;99.90
23289;DHT22;11813;50.834;4.280;2022-10-16T00:39:54;15.30;99.90
23289;DHT22;11813;50.834;4.280;2022-10-16T00:42:20;15.20;99.90
23289;DHT22;11813;50.834;4.280;2022-10-16T00:44:52;15.40;99.90
23289;DHT22;11813;50.834;4.280;2022-10-16T00:47:24;15.40;99.90
23289;DHT22;11813;50.834;4.280;2022-10-16T00:49:55;15.40;99.90
23289;DHT22;11813;50.834;4.280;2022-10-16T00:52:23;15.40;99.90
23289;DHT22;11813;50.834;4.280;2022-10-16T00:54:49;15.40;99.90
23289;DHT22;11813;50.834;4.280;2022-10-16T00:57:16;15.20;99.90
23289;DHT22;11813;50.834;4.280;2022-10-16T00:59:42;15.20;99.90
23289;DHT22;11813;50.834;4.280;2022-10-16T01:02:12;15.20;99.90
23289;DHT22;11813;50.834;4.280;2022-10-16T01:04:44;15.20;99.90
23289;DHT22;11813;50.834;4.280;2022-10-16T01:15:33;15.20;99.90
23289;DHT22;11813;50.834;4.280;2022-10-16T01:20:47;15.20;99.90
23289;DHT22;11813;50.834;4.280;2022-10-16T01:23:30;15.00;99.90
23289;DHT22;11813;50.834;4.280;2022-10-16T01:28:36;14.90;99.90
23289;DHT22;11813;50.834;4.280;2022-10-16T01:31:04;15.00;99.90
23289;DHT22;11813;50.834;4.280;2022-10-16T01:33:41;15.00;99.90
23289;DHT22;11813;50.834;4.280;2022-10-16T01:36:14;15.00;99.90
23289;DHT22;11813;50.834;4.280;2022-10-16T01:38:43;15.00;99.90
23289;DHT22;11813;50.834;4.280;2022-10-16T01:41:18;14.90;99.90
23289;DHT22;11813;50.834;4.280;2022-10-16T01:43:49;14.90;99.90
23289;DHT22;11813;50.834;4.280;2022-10-16T01:46:18;15.00;99.90
23289;DHT22;11813;50.834;4.280;2022-10-16T01:48:46;15.00;99.90
23289;DHT22;11813;50.834;4.280;2022-10-16T01:51:13;15.00;99.90
23289;DHT22;11813;50.834;4.280;2022-10-16T01:53:42;15.00;99.90
23289;DHT22;11813;50.834;4.280;2022-10-16T01:56:11;15.10;99.90
23289;DHT22;11813;50.834;4.280;2022-10-16T01:58:45;15.00;99.90
23289;DHT22;11813;50.834;4.280;2022-10-16T02:01:15;15.00;99.90
23289;DHT22;11813;50.834;4.280;2022-10-16T02:03:43;15.10;99.90
23289;DHT22;11813;50.834;4.280;2022-10-16T02:06:10;15.10;99.90
23289;DHT22;11813;50.834;4.280;2022-10-16T02:08:36;15.00;99.90
23289;DHT22;11813;50.834;4.280;2022-10-16T02:11:02;15.00;99.90
23289;DHT22;11813;50.834;4.280;2022-10-16T02:13:33;14.90;99.90
23289;DHT22;11813;50.834;4.280;2022-10-16T02:15:59;14.80;99.90
23289;DHT22;11813;50.834;4.280;2022-10-16T02:18:26;14.70;99.90
23289;DHT22;11813;50.834;4.280;2022-10-16T02:26:09;15.00;99.90
23289;DHT22;11813;50.834;4.280;2022-10-16T02:28:45;15.00;99.90
23289;DHT22;11813;50.834;4.280;2022-10-16T02:31:18;15.00;99.90
23289;DHT22;11813;50.834;4.280;2022-10-16T02:33:44;14.90;99.90
23289;DHT22;11813;50.834;4.280;2022-10-16T02:36:11;15.00;99.90
23289;DHT22;11813;50.834;4.280;2022-10-16T02:38:38;14.90;99.90
23289;DHT22;11813;50.834;4.280;2022-10-16T02:41:05;15.00;99.90
23289;DHT22;11813;50.834;4.280;2022-10-16T02:43:31;15.00;99.90
23289;DHT22;11813;50.834;4.280;2022-10-16T02:45:57;14.90;99.90
23289;DHT22;11813;50.834;4.280;2022-10-16T02:48:22;14.80;99.90
23289;DHT22;11813;50.834;4.280;2022-10-16T02:50:48;14.80;99.90
23289;DHT22;11813;50.834;4.280;2022-10-16T02:53:13;14.70;99.90
23289;DHT22;11813;50.834;4.280;2022-10-16T02:55:39;14.70;99.90
23289;DHT22;11813;50.834;4.280;2022-10-16T02:58:05;14.70;99.90
23289;DHT22;11813;50.834;4.280;2022-10-16T03:00:31;14.80;99.90
23289;DHT22;11813;50.834;4.280;2022-10-16T03:02:56;14.80;99.90
23289;DHT22;11813;50.834;4.280;2022-10-16T03:05:22;14.90;99.90
23289;DHT22;11813;50.834;4.280;2022-10-16T03:07:48;14.80;99.90
23289;DHT22;11813;50.834;4.280;2022-10-16T03:10:13;14.80;99.90
23289;DHT22;11813;50.834;4.280;2022-10-16T03:12:39;14.80;99.90
23289;DHT22;11813;50.834;4.280;2022-10-16T03:15:05;14.70;99.90
23289;DHT22;11813;50.834;4.280;2022-10-16T03:17:31;14.70;99.90
23289;DHT22;11813;50.834;4.280;2022-10-16T03:19:57;14.70;99.90
23289;DHT22;11813;50.834;4.280;2022-10-16T03:22:22;14.80;99.90
23289;DHT22;11813;50.834;4.280;2022-10-16T03:24:48;14.80;99.90
23289;DHT22;11813;50.834;4.280;2022-10-16T03:27:13;15.00;99.90
23289;DHT22;11813;50.834;4.280;2022-10-16T03:29:39;14.90;99.90
23289;DHT22;11813;50.834;4.280;2022-10-16T03:32:04;14.80;99.90
23289;DHT22;11813;50.834;4.280;2022-10-16T03:34:30;14.80;99.90
23289;DHT22;11813;50.834;4.280;2022-10-16T03:36:56;14.90;99.90
23289;DHT22;11813;50.834;4.280;2022-10-16T03:39:22;14.80;99.90
23289;DHT22;11813;50.834;4.280;2022-10-16T03:41:47;14.70;99.90
23289;DHT22;11813;50.834;4.280;2022-10-16T03:44:13;14.70;99.90
23289;DHT22;11813;50.834;4.280;2022-10-16T03:46:39;14.80;99.90
23289;DHT22;11813;50.834;4.280;2022-10-16T03:49:05;14.80;99.90
23289;DHT22;11813;50.834;4.280;2022-10-16T03:51:31;14.70;99.90
23289;DHT22;11813;50.834;4.280;2022-10-16T03:53:56;14.70;99.90
23289;DHT22;11813;50.834;4.280;2022-10-16T03:56:22;14.70;99.90
23289;DHT22;11813;50.834;4.280;2022-10-16T03:58:48;14.70;99.90
23289;DHT22;11813;50.834;4.280;2022-10-16T04:01:15;14.70;99.90
23289;DHT22;11813;50.834;4.280;2022-10-16T04:03:40;14.70;99.90
23289;DHT22;11813;50.834;4.280;2022-10-16T04:06:06;14.60;99.90
23289;DHT22;11813;50.834;4.280;2022-10-16T04:08:32;14.60;99.90
23289;DHT22;11813;50.834;4.280;2022-10-16T04:11:00;14.50;99.90
23289;DHT22;11813;50.834;4.280;2022-10-16T04:13:26;14.50;99.90
23289;DHT22;11813;50.834;4.280;2022-10-16T04:15:51;14.60;99.90
23289;DHT22;11813;50.834;4.280;2022-10-16T04:18:17;14.70;99.90
23289;DHT22;11813;50.834;4.280;2022-10-16T04:20:42;14.50;99.90
23289;DHT22;11813;50.834;4.280;2022-10-16T04:23:08;14.50;99.90
23289;DHT22;11813;50.834;4.280;2022-10-16T04:25:34;14.40;99.90
23289;DHT22;11813;50.834;4.280;2022-10-16T04:27:59;14.50;99.90
23289;DHT22;11813;50.834;4.280;2022-10-16T04:30:25;14.40;99.90
23289;DHT22;11813;50.834;4.280;2022-10-16T04:32:51;14.40;99.90
23289;DHT22;11813;50.834;4.280;2022-10-16T04:35:18;14.40;99.90
23289;DHT22;11813;50.834;4.280;2022-10-16T04:37:44;14.40;99.90
23289;DHT22;11813;50.834;4.280;2022-10-16T04:40:10;14.40;99.90
23289;DHT22;11813;50.834;4.280;2022-10-16T04:42:36;14.40;99.90
23289;DHT22;11813;50.834;4.280;2022-10-16T04:45:02;14.40;99.90
23289;DHT22;11813;50.834;4.280;2022-10-16T04:47:27;14.40;99.90
23289;DHT22;11813;50.834;4.280;2022-10-16T04:49:53;14.30;99.90
23289;DHT22;11813;50.834;4.280;2022-10-16T04:52:19;14.30;99.90
23289;DHT22;11813;50.834;4.280;2022-10-16T04:54:46;14.30;99.90
23289;DHT22;11813;50.834;4.280;2022-10-16T04:57:12;14.30;99.90
23289;DHT22;11813;50.834;4.280;2022-10-16T04:59:38;14.30;99.90
23289;DHT22;11813;50.834;4.280;2022-10-16T05:02:03;14.20;99.90
23289;DHT22;11813;50.834;4.280;2022-10-16T05:04:29;14.30;99.90
23289;DHT22;11813;50.834;4.280;2022-10-16T05:06:54;14.30;99.90
23289;DHT22;11813;50.834;4.280;2022-10-16T05:09:20;14.40;99.90
23289;DHT22;11813;50.834;4.280;2022-10-16T05:11:46;14.40;99.90
23289;DHT22;11813;50.834;4.280;2022-10-16T05:14:11;14.40;99.90
23289;DHT22;11813;50.834;4.280;2022-10-16T05:16:37;14.40;99.90
23289;DHT22;11813;50.834;4.280;2022-10-16T05:19:03;14.40;99.90
23289;DHT22;11813;50.834;4.280;2022-10-16T05:21:29;14.50;99.90
23289;DHT22;11813;50.834;4.280;2022-10-16T05:23:54;14.40;99.90
23289;DHT22;11813;50.834;4.280;2022-10-16T05:26:21;14.40;99.90
23289;DHT22;11813;50.834;4.280;2022-10-16T05:28:48;14.40;99.90
23289;DHT22;11813;50.834;4.280;2022-10-16T05:31:14;14.40;99.90
23289;DHT22;11813;50.834;4.280;2022-10-16T05:33:40;14.30;99.90
23289;DHT22;11813;50.834;4.280;2022-10-16T05:36:08;14.40;99.90
23289;DHT22;11813;50.834;4.280;2022-10-16T05:38:34;14.40;99.90
23289;DHT22;11813;50.834;4.280;2022-10-16T05:41:01;14.50;99.90
23289;DHT22;11813;50.834;4.280;2022-10-16T05:43:29;14.50;99.90
23289;DHT22;11813;50.834;4.280;2022-10-16T05:45:56;14.40;99.90
23289;DHT22;11813;50.834;4.280;2022-10-16T05:48:22;14.50;99.90
23289;DHT22;11813;50.834;4.280;2022-10-16T05:50:48;14.60;99.90
23289;DHT22;11813;50.834;4.280;2022-10-16T05:53:13;14.60;99.90
23289;DHT22;11813;50.834;4.280;2022-10-16T05:55:39;14.40;99.90
23289;DHT22;11813;50.834;4.280;2022-10-16T05:58:04;14.50;99.90
23289;DHT22;11813;50.834;4.280;2022-10-16T06:00:30;14.40;99.90
23289;DHT22;11813;50.834;4.280;2022-10-16T06:02:55;14.40;99.90
23289;DHT22;11813;50.834;4.280;2022-10-16T06:05:21;14.40;99.90
23289;DHT22;11813;50.834;4.280;2022-10-16T06:07:47;14.40;99.90
23289;DHT22;11813;50.834;4.280;2022-10-16T06:10:13;14.40;99.90
23289;DHT22;11813;50.834;4.280;2022-10-16T06:12:38;14.40;99.90
23289;DHT22;11813;50.834;4.280;2022-10-16T06:15:04;14.60;99.90
23289;DHT22;11813;50.834;4.280;2022-10-16T06:17:30;14.50;99.90
23289;DHT22;11813;50.834;4.280;2022-10-16T06:19:56;14.40;99.90
23289;DHT22;11813;50.834;4.280;2022-10-16T06:22:21;14.40;99.90
23289;DHT22;11813;50.834;4.280;2022-10-16T06:24:47;14.40;99.90
23289;DHT22;11813;50.834;4.280;2022-10-16T06:27:13;14.40;99.90
23289;DHT22;11813;50.834;4.280;2022-10-16T06:29:38;14.30;99.90
23289;DHT22;11813;50.834;4.280;2022-10-16T06:32:04;14.30;99.90
23289;DHT22;11813;50.834;4.280;2022-10-16T06:34:30;14.40;99.90
23289;DHT22;11813;50.834;4.280;2022-10-16T06:36:55;14.40;99.90
23289;DHT22;11813;50.834;4.280;2022-10-16T06:39:21;14.50;99.90
23289;DHT22;11813;50.834;4.280;2022-10-16T06:41:47;14.50;99.90
23289;DHT22;11813;50.834;4.280;2022-10-16T06:44:12;14.50;99.90
23289;DHT22;11813;50.834;4.280;2022-10-16T06:46:38;14.60;99.90
23289;DHT22;11813;50.834;4.280;2022-10-16T06:49:04;14.50;99.90
23289;DHT22;11813;50.834;4.280;2022-10-16T06:51:29;14.50;99.90
23289;DHT22;11813;50.834;4.280;2022-10-16T06:53:57;14.60;99.90
23289;DHT22;11813;50.834;4.280;2022-10-16T06:56:24;14.70;99.90
23289;DHT22;11813;50.834;4.280;2022-10-16T06:58:51;14.60;99.90
23289;DHT22;11813;50.834;4.280;2022-10-16T07:01:20;14.70;99.90
23289;DHT22;11813;50.834;4.280;2022-10-16T07:03:47;14.80;99.90
23289;DHT22;11813;50.834;4.280;2022-10-16T07:06:16;14.80;99.90
23289;DHT22;11813;50.834;4.280;2022-10-16T07:08:44;14.80;99.90
23289;DHT22;11813;50.834;4.280;2022-10-16T07:11:13;14.80;99.90
23289;DHT22;11813;50.834;4.280;2022-10-16T07:13:40;14.80;99.90
23289;DHT22;11813;50.834;4.280;2022-10-16T07:18:32;14.90;99.90
23289;DHT22;11813;50.834;4.280;2022-10-16T07:21:09;15.10;99.90
23289;DHT22;11813;50.834;4.280;2022-10-16T07:23:35;15.10;99.90
23289;DHT22;11813;50.834;4.280;2022-10-16T07:26:01;15.10;99.90
23289;DHT22;11813;50.834;4.280;2022-10-16T07:28:28;15.00;99.90
23289;DHT22;11813;50.834;4.280;2022-10-16T07:30:54;15.10;99.90
23289;DHT22;11813;50.834;4.280;2022-10-16T07:33:20;15.30;99.90
23289;DHT22;11813;50.834;4.280;2022-10-16T07:35:53;15.30;99.90
23289;DHT22;11813;50.834;4.280;2022-10-16T07:38:19;15.20;99.90
23289;DHT22;11813;50.834;4.280;2022-10-16T07:40:45;15.30;99.90
23289;DHT22;11813;50.834;4.280;2022-10-16T07:43:11;15.30;99.90
23289;DHT22;11813;50.834;4.280;2022-10-16T07:45:37;15.30;99.90
23289;DHT22;11813;50.834;4.280;2022-10-16T07:48:11;15.30;99.90
23289;DHT22;11813;50.834;4.280;2022-10-16T07:50:36;15.30;99.90
23289;DHT22;11813;50.834;4.280;2022-10-16T07:53:03;15.30;99.90
23289;DHT22;11813;50.834;4.280;2022-10-16T07:55:28;15.50;99.90
23289;DHT22;11813;50.834;4.280;2022-10-16T07:57:54;15.50;99.90
23289;DHT22;11813;50.834;4.280;2022-10-16T08:00:20;15.60;99.90
23289;DHT22;11813;50.834;4.280;2022-10-16T08:02:46;15.60;99.90
23289;DHT22;11813;50.834;4.280;2022-10-16T08:05:12;15.70;99.90
23289;DHT22;11813;50.834;4.280;2022-10-16T08:07:37;15.80;99.90
23289;DHT22;11813;50.834;4.280;2022-10-16T08:10:03;16.00;99.90
23289;DHT22;11813;50.834;4.280;2022-10-16T08:12:29;16.10;99.90
23289;DHT22;11813;50.834;4.280;2022-10-16T08:14:55;16.10;99.90
23289;DHT22;11813;50.834;4.280;2022-10-16T08:17:21;16.20;99.90
23289;DHT22;11813;50.834;4.280;2022-10-16T08:19:47;16.20;99.90
23289;DHT22;11813;50.834;4.280;2022-10-16T08:22:14;16.40;99.90
23289;DHT22;11813;50.834;4.280;2022-10-16T08:24:40;16.30;99.90
23289;DHT22;11813;50.834;4.280;2022-10-16T08:27:06;16.40;99.90
23289;DHT22;11813;50.834;4.280;2022-10-16T08:29:32;16.30;99.90
23289;DHT22;11813;50.834;4.280;2022-10-16T08:31:58;16.30;99.90
23289;DHT22;11813;50.834;4.280;2022-10-16T08:34:23;16.40;99.90
23289;DHT22;11813;50.834;4.280;2022-10-16T08:36:49;16.60;99.90
23289;DHT22;11813;50.834;4.280;2022-10-16T08:39:16;16.80;99.90
23289;DHT22;11813;50.834;4.280;2022-10-16T08:47:35;17.10;99.90
23289;DHT22;11813;50.834;4.280;2022-10-16T08:49:35;17.20;99.90
23289;DHT22;11813;50.834;4.280;2022-10-16T08:52:01;17.30;99.90
23289;DHT22;11813;50.834;4.280;2022-10-16T08:54:31;17.40;99.90
23289;DHT22;11813;50.834;4.280;2022-10-16T08:57:17;17.50;99.90
23289;DHT22;11813;50.834;4.280;2022-10-16T08:59:44;17.60;99.90
23289;DHT22;11813;50.834;4.280;2022-10-16T09:02:35;17.70;99.90
23289;DHT22;11813;50.834;4.280;2022-10-16T09:05:17;18.00;99.90
23289;DHT22;11813;50.834;4.280;2022-10-16T09:08:02;18.10;99.90
23289;DHT22;11813;50.834;4.280;2022-10-16T09:13:20;18.30;99.90
23289;DHT22;11813;50.834;4.280;2022-10-16T09:15:58;18.40;99.90
23289;DHT22;11813;50.834;4.280;2022-10-16T09:21:16;18.70;99.90
23289;DHT22;11813;50.834;4.280;2022-10-16T09:23:44;18.70;99.90
23289;DHT22;11813;50.834;4.280;2022-10-16T09:26:13;18.60;99.90
23289;DHT22;11813;50.834;4.280;2022-10-16T09:28:40;18.80;99.90
23289;DHT22;11813;50.834;4.280;2022-10-16T09:31:13;18.90;99.90
23289;DHT22;11813;50.834;4.280;2022-10-16T09:33:41;19.30;99.90
23289;DHT22;11813;50.834;4.280;2022-10-16T09:36:08;19.60;99.90
23289;DHT22;11813;50.834;4.280;2022-10-16T09:38:35;19.70;99.90
23289;DHT22;11813;50.834;4.280;2022-10-16T09:41:03;19.80;99.90
23289;DHT22;11813;50.834;4.280;2022-10-16T09:46:31;20.10;99.90
23289;DHT22;11813;50.834;4.280;2022-10-16T09:48:59;20.10;99.90
23289;DHT22;11813;50.834;4.280;2022-10-16T09:54:00;20.00;99.90
23289;DHT22;11813;50.834;4.280;2022-10-16T09:56:29;20.20;99.90
23289;DHT22;11813;50.834;4.280;2022-10-16T09:58:57;20.50;99.90
23289;DHT22;11813;50.834;4.280;2022-10-16T10:01:45;20.70;99.90
23289;DHT22;11813;50.834;4.280;2022-10-16T10:04:12;20.80;99.90
23289;DHT22;11813;50.834;4.280;2022-10-16T10:06:44;20.90;99.90
23289;DHT22;11813;50.834;4.280;2022-10-16T10:09:23;21.00;99.90
23289;DHT22;11813;50.834;4.280;2022-10-16T10:11:58;21.10;99.90
23289;DHT22;11813;50.834;4.280;2022-10-16T10:16:51;21.00;99.90
23289;DHT22;11813;50.834;4.280;2022-10-16T10:19:23;21.00;99.90
23289;DHT22;11813;50.834;4.280;2022-10-16T10:21:50;20.90;99.90
23289;DHT22;11813;50.834;4.280;2022-10-16T10:24:18;20.90;99.90
23289;DHT22;11813;50.834;4.280;2022-10-16T10:26:54;20.70;99.90
23289;DHT22;11813;50.834;4.280;2022-10-16T10:29:25;21.00;99.90
23289;DHT22;11813;50.834;4.280;2022-10-16T10:32:16;20.80;99.90
23289;DHT22;11813;50.834;4.280;2022-10-16T10:43:20;21.50;99.90
23289;DHT22;11813;50.834;4.280;2022-10-16T10:45:55;22.00;99.90
23289;DHT22;11813;50.834;4.280;2022-10-16T10:52:02;22.50;99.90
23289;DHT22;11813;50.834;4.280;2022-10-16T10:57:41;21.80;99.90
23289;DHT22;11813;50.834;4.280;2022-10-16T11:00:20;21.10;99.90
23289;DHT22;11813;50.834;4.280;2022-10-16T11:05:50;21.00;99.90
23289;DHT22;11813;50.834;4.280;2022-10-16T11:08:29;21.30;99.90
23289;DHT22;11813;50.834;4.280;2022-10-16T11:11:20;21.40;99.90
23289;DHT22;11813;50.834;4.280;2022-10-16T11:14:00;21.80;99.90
23289;DHT22;11813;50.834;4.280;2022-10-16T11:16:54;22.00;99.90
23289;DHT22;11813;50.834;4.280;2022-10-16T11:22:09;22.60;99.90
23289;DHT22;11813;50.834;4.280;2022-10-16T11:27:19;22.80;99.90
23289;DHT22;11813;50.834;4.280;2022-10-16T11:29:55;23.10;99.90
23289;DHT22;11813;50.834;4.280;2022-10-16T11:32:33;23.00;99.90
23289;DHT22;11813;50.834;4.280;2022-10-16T11:35:08;23.00;99.90
23289;DHT22;11813;50.834;4.280;2022-10-16T11:37:41;23.20;99.90
23289;DHT22;11813;50.834;4.280;2022-10-16T11:40:19;23.00;99.90
23289;DHT22;11813;50.834;4.280;2022-10-16T11:43:10;23.10;99.90
23289;DHT22;11813;50.834;4.280;2022-10-16T11:45:43;23.40;99.90
23289;DHT22;11813;50.834;4.280;2022-10-16T11:50:39;22.90;99.90
23289;DHT22;11813;50.834;4.280;2022-10-16T11:56:06;22.50;99.90
23289;DHT22;11813;50.834;4.280;2022-10-16T11:58:41;22.50;99.90
23289;DHT22;11813;50.834;4.280;2022-10-16T12:01:43;22.40;99.90
23289;DHT22;11813;50.834;4.280;2022-10-16T12:07:05;22.10;99.90
23289;DHT22;11813;50.834;4.280;2022-10-16T12:09:36;22.20;99.90
23289;DHT22;11813;50.834;4.280;2022-10-16T12:12:02;22.20;99.90
23289;DHT22;11813;50.834;4.280;2022-10-16T12:19:31;22.30;99.90
23289;DHT22;11813;50.834;4.280;2022-10-16T12:21:59;22.30;99.90
23289;DHT22;11813;50.834;4.280;2022-10-16T12:24:37;22.20;99.90
23289;DHT22;11813;50.834;4.280;2022-10-16T12:27:05;22.20;99.90
23289;DHT22;11813;50.834;4.280;2022-10-16T12:29:38;22.20;99.90
23289;DHT22;11813;50.834;4.280;2022-10-16T12:32:35;22.30;99.90
23289;DHT22;11813;50.834;4.280;2022-10-16T12:35:02;22.00;99.90
23289;DHT22;11813;50.834;4.280;2022-10-16T12:37:35;22.10;99.90
23289;DHT22;11813;50.834;4.280;2022-10-16T12:40:23;22.30;99.90
23289;DHT22;11813;50.834;4.280;2022-10-16T12:42:50;22.20;99.90
23289;DHT22;11813;50.834;4.280;2022-10-16T12:45:45;22.00;99.90
23289;DHT22;11813;50.834;4.280;2022-10-16T12:48:21;21.80;99.90
23289;DHT22;11813;50.834;4.280;2022-10-16T12:50:47;21.60;99.90
23289;DHT22;11813;50.834;4.280;2022-10-16T12:53:20;21.50;99.90
23289;DHT22;11813;50.834;4.280;2022-10-16T12:56:09;21.50;99.90
23289;DHT22;11813;50.834;4.280;2022-10-16T12:58:59;21.70;99.90
23289;DHT22;11813;50.834;4.280;2022-10-16T13:04:17;21.80;99.90
23289;DHT22;11813;50.834;4.280;2022-10-16T13:23:59;22.20;99.90
23289;DHT22;11813;50.834;4.280;2022-10-16T13:29:09;22.20;99.90
23289;DHT22;11813;50.834;4.280;2022-10-16T13:31:37;22.00;99.90
23289;DHT22;11813;50.834;4.280;2022-10-16T13:34:03;22.20;99.90
23289;DHT22;11813;50.834;4.280;2022-10-16T13:36:42;22.20;99.90
23289;DHT22;11813;50.834;4.280;2022-10-16T13:39:14;22.20;99.90
23289;DHT22;11813;50.834;4.280;2022-10-16T13:41:40;22.10;99.90
23289;DHT22;11813;50.834;4.280;2022-10-16T13:44:13;22.00;99.90
23289;DHT22;11813;50.834;4.280;2022-10-16T13:46:39;21.90;99.90
23289;DHT22;11813;50.834;4.280;2022-10-16T13:49:13;21.90;99.90
23289;DHT22;11813;50.834;4.280;2022-10-16T13:51:38;21.90;99.90
23289;DHT22;11813;50.834;4.280;2022-10-16T13:54:04;21.90;99.90
23289;DHT22;11813;50.834;4.280;2022-10-16T13:56:32;22.00;99.90
23289;DHT22;11813;50.834;4.280;2022-10-16T13:59:23;22.00;99.90
23289;DHT22;11813;50.834;4.280;2022-10-16T14:01:46;21.90;99.90
23289;DHT22;11813;50.834;4.280;2022-10-16T14:04:13;21.80;99.90
23289;DHT22;11813;50.834;4.280;2022-10-16T14:06:44;21.80;99.90
23289;DHT22;11813;50.834;4.280;2022-10-16T14:09:30;21.60;99.90
23289;DHT22;11813;50.834;4.280;2022-10-16T14:12:02;21.50;99.90
23289;DHT22;11813;50.834;4.280;2022-10-16T14:14:35;21.30;99.90
23289;DHT22;11813;50.834;4.280;2022-10-16T14:17:05;21.20;99.90
23289;DHT22;11813;50.834;4.280;2022-10-16T14:19:31;21.20;99.90
23289;DHT22;11813;50.834;4.280;2022-10-16T14:21:58;21.30;99.90
23289;DHT22;11813;50.834;4.280;2022-10-16T14:26:57;21.30;99.90
23289;DHT22;11813;50.834;4.280;2022-10-16T14:29:25;21.10;99.90
23289;DHT22;11813;50.834;4.280;2022-10-16T14:32:02;21.00;99.90
23289;DHT22;11813;50.834;4.280;2022-10-16T14:34:33;21.10;99.90
23289;DHT22;11813;50.834;4.280;2022-10-16T14:37:30;21.00;99.90
23289;DHT22;11813;50.834;4.280;2022-10-16T14:39:56;21.10;99.90
23289;DHT22;11813;50.834;4.280;2022-10-16T14:42:24;21.20;99.90
23289;DHT22;11813;50.834;4.280;2022-10-16T14:44:53;21.20;99.90
23289;DHT22;11813;50.834;4.280;2022-10-16T14:47:23;21.20;99.90
23289;DHT22;11813;50.834;4.280;2022-10-16T14:49:51;21.30;99.90
23289;DHT22;11813;50.834;4.280;2022-10-16T14:52:17;21.40;99.90
23289;DHT22;11813;50.834;4.280;2022-10-16T14:54:43;21.40;99.90
23289;DHT22;11813;50.834;4.280;2022-10-16T14:57:23;21.40;99.90
23289;DHT22;11813;50.834;4.280;2022-10-16T14:59:49;21.40;99.90
23289;DHT22;11813;50.834;4.280;2022-10-16T15:02:28;21.50;99.90
23289;DHT22;11813;50.834;4.280;2022-10-16T15:04:55;21.30;99.90
23289;DHT22;11813;50.834;4.280;2022-10-16T15:07:20;21.40;99.90
23289;DHT22;11813;50.834;4.280;2022-10-16T15:09:46;21.50;99.90
23289;DHT22;11813;50.834;4.280;2022-10-16T15:12:12;21.50;99.90
23289;DHT22;11813;50.834;4.280;2022-10-16T15:14:38;21.40;99.90
23289;DHT22;11813;50.834;4.280;2022-10-16T15:17:03;21.30;99.90
23289;DHT22;11813;50.834;4.280;2022-10-16T15:19:29;21.40;99.90
23289;DHT22;11813;50.834;4.280;2022-10-16T15:21:55;21.30;99.90
23289;DHT22;11813;50.834;4.280;2022-10-16T15:24:21;21.20;99.90
23289;DHT22;11813;50.834;4.280;2022-10-16T15:26:46;21.20;99.90
23289;DHT22;11813;50.834;4.280;2022-10-16T15:29:12;21.20;99.90
23289;DHT22;11813;50.834;4.280;2022-10-16T15:31:38;21.20;99.90
23289;DHT22;11813;50.834;4.280;2022-10-16T15:34:04;21.20;99.90
23289;DHT22;11813;50.834;4.280;2022-10-16T15:36:36;21.20;99.90
23289;DHT22;11813;50.834;4.280;2022-10-16T15:39:04;21.00;99.90
23289;DHT22;11813;50.834;4.280;2022-10-16T15:41:30;20.90;99.90
23289;DHT22;11813;50.834;4.280;2022-10-16T15:43:55;20.90;99.90
23289;DHT22;11813;50.834;4.280;2022-10-16T15:46:23;20.90;99.90
23289;DHT22;11813;50.834;4.280;2022-10-16T15:48:50;20.80;99.90
23289;DHT22;11813;50.834;4.280;2022-10-16T15:51:17;20.90;99.90
23289;DHT22;11813;50.834;4.280;2022-10-16T15:53:43;20.90;99.90
23289;DHT22;11813;50.834;4.280;2022-10-16T15:56:13;20.80;99.90
23289;DHT22;11813;50.834;4.280;2022-10-16T15:58:38;20.80;99.90
23289;DHT22;11813;50.834;4.280;2022-10-16T16:01:04;20.80;99.90
23289;DHT22;11813;50.834;4.280;2022-10-16T16:03:31;20.70;99.90
23289;DHT22;11813;50.834;4.280;2022-10-16T16:05:57;20.70;99.90
23289;DHT22;11813;50.834;4.280;2022-10-16T16:08:23;20.60;99.90
23289;DHT22;11813;50.834;4.280;2022-10-16T16:11:06;20.60;99.90
23289;DHT22;11813;50.834;4.280;2022-10-16T16:13:32;20.60;99.90
23289;DHT22;11813;50.834;4.280;2022-10-16T16:15:57;20.60;99.90
23289;DHT22;11813;50.834;4.280;2022-10-16T16:18:23;20.60;99.90
23289;DHT22;11813;50.834;4.280;2022-10-16T16:20:50;20.60;99.90
23289;DHT22;11813;50.834;4.280;2022-10-16T16:23:16;20.50;99.90
23289;DHT22;11813;50.834;4.280;2022-10-16T16:25:42;20.40;99.90
23289;DHT22;11813;50.834;4.280;2022-10-16T16:28:07;20.40;99.90
23289;DHT22;11813;50.834;4.280;2022-10-16T16:30:36;20.40;99.90
23289;DHT22;11813;50.834;4.280;2022-10-16T16:33:01;20.40;99.90
23289;DHT22;11813;50.834;4.280;2022-10-16T16:35:27;20.30;99.90
23289;DHT22;11813;50.834;4.280;2022-10-16T16:37:52;20.30;99.90
23289;DHT22;11813;50.834;4.280;2022-10-16T16:40:18;20.30;99.90
23289;DHT22;11813;50.834;4.280;2022-10-16T16:42:43;20.20;99.90
23289;DHT22;11813;50.834;4.280;2022-10-16T16:45:09;20.20;99.90
23289;DHT22;11813;50.834;4.280;2022-10-16T16:47:35;20.10;99.90
23289;DHT22;11813;50.834;4.280;2022-10-16T16:50:00;20.10;99.90
23289;DHT22;11813;50.834;4.280;2022-10-16T16:52:30;20.00;99.90
23289;DHT22;11813;50.834;4.280;2022-10-16T16:54:55;20.00;99.90
23289;DHT22;11813;50.834;4.280;2022-10-16T16:57:21;20.00;99.90
23289;DHT22;11813;50.834;4.280;2022-10-16T16:59:46;19.90;99.90
23289;DHT22;11813;50.834;4.280;2022-10-16T17:02:13;19.80;99.90
23289;DHT22;11813;50.834;4.280;2022-10-16T17:04:38;19.80;99.90
23289;DHT22;11813;50.834;4.280;2022-10-16T17:07:04;19.90;99.90
23289;DHT22;11813;50.834;4.280;2022-10-16T17:09:32;19.70;99.90
23289;DHT22;11813;50.834;4.280;2022-10-16T17:11:58;19.80;99.90
23289;DHT22;11813;50.834;4.280;2022-10-16T17:14:23;19.80;99.90
23289;DHT22;11813;50.834;4.280;2022-10-16T17:16:49;19.80;99.90
23289;DHT22;11813;50.834;4.280;2022-10-16T17:19:17;19.80;99.90
23289;DHT22;11813;50.834;4.280;2022-10-16T17:21:43;19.80;99.90